createdAt,value
2019-06-01T00:00:10.399Z,1017.34
2019-06-01T00:00:56.249Z,1017.37
2019-06-01T00:01:56.264Z,1017.39
2019-06-01T00:02:57.440Z,1017.37
2019-06-01T00:03:56.306Z,1017.36
2019-06-01T00:04:56.327Z,1017.37
2019-06-01T00:05:56.348Z,1017.37
2019-06-01T00:06:56.369Z,1017.40
2019-06-01T00:07:56.394Z,1017.37
2019-06-01T00:08:56.414Z,1017.37
2019-06-01T00:09:56.442Z,1017.37
2019-06-01T00:10:56.455Z,1017.35
2019-06-01T00:11:56.488Z,1017.39
2019-06-01T00:12:56.500Z,1017.37
2019-06-01T00:13:56.526Z,1017.35
2019-06-01T00:14:56.540Z,1017.32
2019-06-01T00:15:56.557Z,1017.32
2019-06-01T00:16:56.580Z,1017.34
2019-06-01T00:17:56.601Z,1017.32
2019-06-01T00:18:56.627Z,1017.33
2019-06-01T00:19:56.643Z,1017.31
2019-06-01T00:20:56.663Z,1017.28
2019-06-01T00:21:56.687Z,1017.34
2019-06-01T00:22:56.706Z,1017.34
2019-06-01T00:23:56.728Z,1017.31
2019-06-01T00:24:56.747Z,1017.29
2019-06-01T00:25:56.769Z,1017.29
2019-06-01T00:26:56.793Z,1017.28
2019-06-01T00:27:56.833Z,1017.30
2019-06-01T00:28:56.831Z,1017.25
2019-06-01T00:29:56.854Z,1017.25
2019-06-01T00:30:56.876Z,1017.28
2019-06-01T00:31:56.896Z,1017.25
2019-06-01T00:32:56.923Z,1017.28
2019-06-01T00:33:56.938Z,1017.26
2019-06-01T00:34:56.962Z,1017.29
2019-06-01T00:35:56.980Z,1017.29
2019-06-01T00:36:57.012Z,1017.29
2019-06-01T00:37:57.020Z,1017.30
2019-06-01T00:38:57.041Z,1017.29
2019-06-01T00:39:57.062Z,1017.30
2019-06-01T00:40:57.089Z,1017.34
2019-06-01T00:41:57.106Z,1017.33
2019-06-01T00:42:57.129Z,1017.33
2019-06-01T00:43:57.148Z,1017.33
2019-06-01T00:44:57.170Z,1017.34
2019-06-01T00:45:57.197Z,1017.36
2019-06-01T00:46:57.212Z,1017.36
2019-06-01T00:47:57.232Z,1017.34
2019-06-01T00:48:57.250Z,1017.33
2019-06-01T00:49:57.274Z,1017.31
2019-06-01T00:50:57.296Z,1017.29
2019-06-01T00:51:57.314Z,1017.29
2019-06-01T00:52:57.337Z,1017.23
2019-06-01T00:53:57.360Z,1017.25
2019-06-01T00:54:57.376Z,1017.21
2019-06-01T00:55:57.400Z,1017.21
2019-06-01T00:56:57.424Z,1017.22
2019-06-01T00:57:57.436Z,1017.21
2019-06-01T00:58:57.497Z,1017.22
2019-06-01T00:59:57.480Z,1017.26
2019-06-01T01:00:57.500Z,1017.25
2019-06-01T01:01:57.524Z,1017.24
2019-06-01T01:02:57.548Z,1017.23
2019-06-01T01:03:57.568Z,1017.25
2019-06-01T01:04:57.741Z,1017.21
2019-06-01T01:05:57.604Z,1017.27
2019-06-01T01:06:57.624Z,1017.26
2019-06-01T01:07:57.645Z,1017.28
2019-06-01T01:08:57.665Z,1017.26
2019-06-01T01:09:57.687Z,1017.31
2019-06-01T01:10:57.706Z,1017.32
2019-06-01T01:11:57.729Z,1017.32
2019-06-01T01:12:57.767Z,1017.32
2019-06-01T01:13:57.770Z,1017.33
2019-06-01T01:14:57.792Z,1017.32
2019-06-01T01:15:57.811Z,1017.30
2019-06-01T01:16:57.832Z,1017.32
2019-06-01T01:17:57.853Z,1017.28
2019-06-01T01:18:57.882Z,1017.25
2019-06-01T01:19:57.895Z,1017.23
2019-06-01T01:20:57.920Z,1017.26
2019-06-01T01:21:57.932Z,1017.23
2019-06-01T01:22:57.955Z,1017.26
2019-06-01T01:23:57.977Z,1017.25
2019-06-01T01:24:57.994Z,1017.22
2019-06-01T01:25:58.017Z,1017.19
2019-06-01T01:26:58.037Z,1017.21
2019-06-01T01:27:58.063Z,1017.23
2019-06-01T01:28:58.080Z,1017.23
2019-06-01T01:29:58.099Z,1017.23
2019-06-01T01:31:12.343Z,1017.27
2019-06-01T01:31:58.145Z,1017.24
2019-06-01T01:32:59.341Z,1017.27
2019-06-01T01:33:58.180Z,1017.23
2019-06-01T01:34:58.202Z,1017.22
2019-06-01T01:35:58.221Z,1017.18
2019-06-01T01:36:58.241Z,1017.19
2019-06-01T01:37:58.309Z,1017.22
2019-06-01T01:38:58.505Z,1017.19
2019-06-01T01:39:58.656Z,1017.22
2019-06-01T01:40:59.379Z,1017.22
2019-06-01T01:41:58.660Z,1017.22
2019-06-01T01:42:58.964Z,1017.22
2019-06-01T01:43:58.711Z,1017.18
2019-06-01T01:44:58.671Z,1017.17
2019-06-01T01:45:59.000Z,1017.15
2019-06-01T01:46:59.050Z,1017.16
2019-06-01T01:47:59.241Z,1017.12
2019-06-01T01:48:58.489Z,1017.14
2019-06-01T01:49:58.510Z,1017.15
2019-06-01T01:50:58.646Z,1017.14
2019-06-01T01:51:59.545Z,1017.16
2019-06-01T01:52:59.008Z,1017.19
2019-06-01T01:53:58.830Z,1017.12
2019-06-01T01:54:58.952Z,1017.13
2019-06-01T01:55:59.083Z,1017.11
2019-06-01T01:56:58.651Z,1017.13
2019-06-01T01:57:59.527Z,1017.14
2019-06-01T01:58:58.698Z,1017.13
2019-06-01T01:59:59.441Z,1017.13
2019-06-01T02:01:00.139Z,1017.12
2019-06-01T02:01:58.753Z,1017.13
2019-06-01T02:03:00.078Z,1017.10
2019-06-01T02:03:59.114Z,1017.12
2019-06-01T02:04:59.875Z,1017.13
2019-06-01T02:05:59.117Z,1017.12
2019-06-01T02:07:00.187Z,1017.14
2019-06-01T02:08:00.057Z,1017.10
2019-06-01T02:08:59.329Z,1017.14
2019-06-01T02:09:59.282Z,1017.14
2019-06-01T02:10:59.517Z,1017.15
2019-06-01T02:11:59.618Z,1017.20
2019-06-01T02:12:59.591Z,1017.18
2019-06-01T02:13:59.951Z,1017.18
2019-06-01T02:14:59.786Z,1017.19
2019-06-01T02:16:00.549Z,1017.15
2019-06-01T02:17:00.251Z,1017.18
2019-06-01T02:18:00.642Z,1017.15
2019-06-01T02:19:00.429Z,1017.15
2019-06-01T02:20:00.198Z,1017.10
2019-06-01T02:21:00.392Z,1017.10
2019-06-01T02:21:59.157Z,1017.10
2019-06-01T02:22:59.182Z,1017.08
2019-06-01T02:23:59.198Z,1017.11
2019-06-01T02:24:59.882Z,1017.10
2019-06-01T02:25:59.238Z,1017.10
2019-06-01T02:26:59.428Z,1017.08
2019-06-01T02:27:59.334Z,1017.12
2019-06-01T02:28:59.570Z,1017.12
2019-06-01T02:29:59.474Z,1017.09
2019-06-01T02:30:59.951Z,1017.08
2019-06-01T02:32:01.504Z,1017.10
2019-06-01T02:33:00.224Z,1017.07
2019-06-01T02:34:01.477Z,1017.11
2019-06-01T02:35:00.291Z,1017.11
2019-06-01T02:36:00.663Z,1017.10
2019-06-01T02:37:00.275Z,1017.07
2019-06-01T02:38:00.384Z,1017.11
2019-06-01T02:39:01.174Z,1017.10
2019-06-01T02:40:00.959Z,1017.08
2019-06-01T02:41:01.209Z,1017.09
2019-06-01T02:42:01.038Z,1017.08
2019-06-01T02:43:01.342Z,1017.07
2019-06-01T02:44:01.394Z,1017.08
2019-06-01T02:45:01.150Z,1017.08
2019-06-01T02:46:00.451Z,1017.05
2019-06-01T02:47:01.343Z,1017.03
2019-06-01T02:48:01.489Z,1017.00
2019-06-01T02:49:00.350Z,1017.04
2019-06-01T02:49:59.727Z,1017.03
2019-06-01T02:50:59.939Z,1017.08
2019-06-01T02:51:59.765Z,1017.05
2019-06-01T02:52:59.792Z,1017.06
2019-06-01T02:53:59.799Z,1017.06
2019-06-01T02:54:59.822Z,1017.05
2019-06-01T02:55:59.992Z,1017.06
2019-06-01T02:57:00.219Z,1017.05
2019-06-01T02:58:00.239Z,1017.03
2019-06-01T02:59:00.330Z,1017.04
2019-06-01T03:00:00.416Z,1017.06
2019-06-01T03:01:00.608Z,1017.03
2019-06-01T03:02:06.704Z,1017.04
2019-06-01T03:03:00.727Z,1017.03
2019-06-01T03:04:01.334Z,1017.01
2019-06-01T03:05:01.161Z,1017.05
2019-06-01T03:06:01.321Z,1017.07
2019-06-01T03:07:00.062Z,1017.09
2019-06-01T03:08:00.077Z,1017.02
2019-06-01T03:09:00.102Z,1017.06
2019-06-01T03:10:00.857Z,1017.11
2019-06-01T03:11:00.136Z,1017.11
2019-06-01T03:12:00.924Z,1017.12
2019-06-01T03:13:00.181Z,1017.18
2019-06-01T03:14:00.380Z,1017.18
2019-06-01T03:15:00.436Z,1017.13
2019-06-01T03:16:00.308Z,1017.14
2019-06-01T03:17:01.733Z,1017.16
2019-06-01T03:18:01.452Z,1017.14
2019-06-01T03:19:01.711Z,1017.16
2019-06-01T03:20:01.693Z,1017.13
2019-06-01T03:21:01.527Z,1017.19
2019-06-01T03:22:03.132Z,1017.18
2019-06-01T03:23:01.679Z,1017.15
2019-06-01T03:24:00.399Z,1017.19
2019-06-01T03:25:00.416Z,1017.19
2019-06-01T03:26:00.434Z,1017.18
2019-06-01T03:27:00.461Z,1017.18
2019-06-01T03:28:00.475Z,1017.19
2019-06-01T03:29:00.500Z,1017.23
2019-06-01T03:30:00.525Z,1017.18
2019-06-01T03:31:01.108Z,1017.17
2019-06-01T03:32:19.137Z,1017.20
2019-06-01T03:33:01.184Z,1017.19
2019-06-01T03:34:01.479Z,1017.21
2019-06-01T03:35:00.615Z,1017.18
2019-06-01T03:36:00.768Z,1017.24
2019-06-01T03:37:01.069Z,1017.19
2019-06-01T03:38:00.886Z,1017.18
2019-06-01T03:39:02.014Z,1017.16
2019-06-01T03:40:01.078Z,1017.13
2019-06-01T03:41:02.012Z,1017.10
2019-06-01T03:42:01.041Z,1017.13
2019-06-01T03:43:00.780Z,1017.13
2019-06-01T03:44:00.797Z,1017.14
2019-06-01T03:45:01.361Z,1017.17
2019-06-01T03:46:00.832Z,1017.15
2019-06-01T03:47:01.535Z,1017.16
2019-06-01T03:48:00.874Z,1017.21
2019-06-01T03:49:01.454Z,1017.23
2019-06-01T03:50:00.912Z,1017.21
2019-06-01T03:51:01.566Z,1017.25
2019-06-01T03:52:00.955Z,1017.22
2019-06-01T03:53:01.750Z,1017.22
2019-06-01T03:54:01.008Z,1017.21
2019-06-01T03:55:01.820Z,1017.25
2019-06-01T03:56:01.660Z,1017.17
2019-06-01T03:57:01.088Z,1017.24
2019-06-01T03:58:01.111Z,1017.18
2019-06-01T03:59:01.097Z,1017.17
2019-06-01T04:00:01.171Z,1017.18
2019-06-01T04:01:01.134Z,1017.19
2019-06-01T04:02:01.153Z,1017.20
2019-06-01T04:03:01.175Z,1017.16
2019-06-01T04:04:01.192Z,1017.16
2019-06-01T04:05:01.324Z,1017.16
2019-06-01T04:06:01.259Z,1017.18
2019-06-01T04:07:01.333Z,1017.21
2019-06-01T04:08:01.396Z,1017.18
2019-06-01T04:09:01.620Z,1017.16
2019-06-01T04:10:01.794Z,1017.18
2019-06-01T04:11:01.467Z,1017.20
2019-06-01T04:12:01.440Z,1017.21
2019-06-01T04:13:01.493Z,1017.21
2019-06-01T04:14:01.578Z,1017.21
2019-06-01T04:15:08.366Z,1017.21
2019-06-01T04:16:01.761Z,1017.19
2019-06-01T04:17:01.980Z,1017.20
2019-06-01T04:18:01.884Z,1017.18
2019-06-01T04:19:01.712Z,1017.20
2019-06-01T04:20:02.034Z,1017.18
2019-06-01T04:21:02.359Z,1017.19
2019-06-01T04:22:01.931Z,1017.17
2019-06-01T04:23:02.020Z,1017.22
2019-06-01T04:24:01.918Z,1017.23
2019-06-01T04:25:02.042Z,1017.25
2019-06-01T04:26:02.176Z,1017.29
2019-06-01T04:27:02.046Z,1017.24
2019-06-01T04:28:02.112Z,1017.25
2019-06-01T04:29:02.281Z,1017.27
2019-06-01T04:30:02.527Z,1017.26
2019-06-01T04:31:02.315Z,1017.28
2019-06-01T04:32:02.494Z,1017.25
2019-06-01T04:33:02.574Z,1017.22
2019-06-01T04:34:02.498Z,1017.25
2019-06-01T04:35:03.319Z,1017.21
2019-06-01T04:36:02.733Z,1017.25
2019-06-01T04:37:03.498Z,1017.26
2019-06-01T04:38:02.964Z,1017.22
2019-06-01T04:39:03.228Z,1017.27
2019-06-01T04:40:03.235Z,1017.30
2019-06-01T04:41:01.938Z,1017.30
2019-06-01T04:42:01.961Z,1017.33
2019-06-01T04:43:01.979Z,1017.33
2019-06-01T04:44:02.000Z,1017.32
2019-06-01T04:45:02.270Z,1017.32
2019-06-01T04:46:02.041Z,1017.28
2019-06-01T04:47:02.063Z,1017.26
2019-06-01T04:48:02.087Z,1017.24
2019-06-01T04:49:02.101Z,1017.29
2019-06-01T04:50:02.128Z,1017.23
2019-06-01T04:51:02.142Z,1017.27
2019-06-01T04:52:02.171Z,1017.25
2019-06-01T04:53:02.184Z,1017.27
2019-06-01T04:54:02.207Z,1017.25
2019-06-01T04:55:02.228Z,1017.24
2019-06-01T04:56:02.247Z,1017.27
2019-06-01T04:57:02.268Z,1017.25
2019-06-01T04:58:02.293Z,1017.26
2019-06-01T04:59:02.309Z,1017.21
2019-06-01T05:00:03.176Z,1017.22
2019-06-01T05:01:02.348Z,1017.20
2019-06-01T05:02:02.371Z,1017.21
2019-06-01T05:03:06.758Z,1017.20
2019-06-01T05:04:02.418Z,1017.18
2019-06-01T05:05:02.464Z,1017.16
2019-06-01T05:06:02.453Z,1017.21
2019-06-01T05:07:02.471Z,1017.25
2019-06-01T05:08:02.494Z,1017.20
2019-06-01T05:09:02.518Z,1017.22
2019-06-01T05:10:02.541Z,1017.23
2019-06-01T05:11:05.379Z,1017.25
2019-06-01T05:12:02.583Z,1017.25
2019-06-01T05:13:02.594Z,1017.25
2019-06-01T05:14:02.617Z,1017.28
2019-06-01T05:15:02.639Z,1017.22
2019-06-01T05:16:02.663Z,1017.22
2019-06-01T05:17:02.679Z,1017.20
2019-06-01T05:18:02.703Z,1017.20
2019-06-01T05:19:02.726Z,1017.22
2019-06-01T05:20:02.775Z,1017.20
2019-06-01T05:21:02.775Z,1017.19
2019-06-01T05:22:02.780Z,1017.23
2019-06-01T05:23:02.807Z,1017.21
2019-06-01T05:24:02.825Z,1017.17
2019-06-01T05:25:02.880Z,1017.14
2019-06-01T05:26:02.865Z,1017.14
2019-06-01T05:27:02.884Z,1017.18
2019-06-01T05:28:02.906Z,1017.17
2019-06-01T05:29:02.924Z,1017.18
2019-06-01T05:30:02.948Z,1017.14
2019-06-01T05:31:02.966Z,1017.17
2019-06-01T05:32:02.991Z,1017.15
2019-06-01T05:33:03.007Z,1017.11
2019-06-01T05:34:03.028Z,1017.15
2019-06-01T05:35:03.249Z,1017.13
2019-06-01T05:36:03.073Z,1017.11
2019-06-01T05:37:03.091Z,1017.13
2019-06-01T05:38:03.116Z,1017.10
2019-06-01T05:39:03.162Z,1017.12
2019-06-01T05:40:03.153Z,1017.15
2019-06-01T05:41:03.179Z,1017.10
2019-06-01T05:42:03.197Z,1017.09
2019-06-01T05:43:03.218Z,1017.10
2019-06-01T05:44:03.240Z,1017.16
2019-06-01T05:45:03.258Z,1017.17
2019-06-01T05:46:03.284Z,1017.14
2019-06-01T05:47:03.318Z,1017.14
2019-06-01T05:48:03.338Z,1017.12
2019-06-01T05:49:03.350Z,1017.16
2019-06-01T05:50:03.365Z,1017.16
2019-06-01T05:51:03.389Z,1017.13
2019-06-01T05:52:03.413Z,1017.17
2019-06-01T05:53:03.440Z,1017.20
2019-06-01T05:54:03.456Z,1017.23
2019-06-01T05:55:03.474Z,1017.26
2019-06-01T05:56:03.499Z,1017.25
2019-06-01T05:57:03.524Z,1017.30
2019-06-01T05:58:03.541Z,1017.35
2019-06-01T05:59:03.566Z,1017.37
2019-06-01T06:00:03.587Z,1017.30
2019-06-01T06:01:03.610Z,1017.38
2019-06-01T06:02:03.633Z,1017.35
2019-06-01T06:03:03.654Z,1017.33
2019-06-01T06:04:03.679Z,1017.39
2019-06-01T06:05:03.697Z,1017.37
2019-06-01T06:06:03.720Z,1017.36
2019-06-01T06:07:03.749Z,1017.40
2019-06-01T06:08:03.767Z,1017.33
2019-06-01T06:09:03.797Z,1017.35
2019-06-01T06:10:03.812Z,1017.38
2019-06-01T06:11:03.836Z,1017.38
2019-06-01T06:12:03.859Z,1017.40
2019-06-01T06:13:03.883Z,1017.38
2019-06-01T06:14:03.908Z,1017.38
2019-06-01T06:15:03.930Z,1017.43
2019-06-01T06:16:03.955Z,1017.42
2019-06-01T06:17:03.976Z,1017.42
2019-06-01T06:18:03.999Z,1017.41
2019-06-01T06:19:04.031Z,1017.48
2019-06-01T06:20:04.045Z,1017.49
2019-06-01T06:21:04.075Z,1017.48
2019-06-01T06:22:04.093Z,1017.45
2019-06-01T06:23:04.117Z,1017.46
2019-06-01T06:24:04.139Z,1017.44
2019-06-01T06:25:04.268Z,1017.44
2019-06-01T06:26:04.188Z,1017.48
2019-06-01T06:27:04.215Z,1017.43
2019-06-01T06:28:04.241Z,1017.41
2019-06-01T06:29:04.273Z,1017.38
2019-06-01T06:30:04.286Z,1017.46
2019-06-01T06:31:04.304Z,1017.49
2019-06-01T06:32:04.333Z,1017.47
2019-06-01T06:33:04.354Z,1017.53
2019-06-01T06:34:04.382Z,1017.49
2019-06-01T06:35:04.413Z,1017.45
2019-06-01T06:36:04.427Z,1017.48
2019-06-01T06:37:04.456Z,1017.46
2019-06-01T06:38:04.475Z,1017.41
2019-06-01T06:39:04.822Z,1017.46
2019-06-01T06:40:04.525Z,1017.43
2019-06-01T06:41:04.549Z,1017.42
2019-06-01T06:42:04.573Z,1017.36
2019-06-01T06:43:18.635Z,1017.34
2019-06-01T06:44:04.624Z,1017.35
2019-06-01T06:45:04.652Z,1017.41
2019-06-01T06:46:04.670Z,1017.36
2019-06-01T06:47:04.705Z,1017.34
2019-06-01T06:48:04.737Z,1017.37
2019-06-01T06:49:04.751Z,1017.34
2019-06-01T06:50:04.769Z,1017.39
2019-06-01T06:51:04.798Z,1017.36
2019-06-01T06:52:04.816Z,1017.34
2019-06-01T06:53:04.841Z,1017.33
2019-06-01T06:54:04.876Z,1017.35
2019-06-01T06:55:04.904Z,1017.36
2019-06-01T06:56:04.918Z,1017.35
2019-06-01T06:57:04.938Z,1017.29
2019-06-01T06:58:04.963Z,1017.28
2019-06-01T06:59:04.985Z,1017.30
2019-06-01T07:00:05.011Z,1017.25
2019-06-01T07:01:05.117Z,1017.28
2019-06-01T07:02:05.062Z,1017.32
2019-06-01T07:03:05.083Z,1017.34
2019-06-01T07:04:12.519Z,1017.33
2019-06-01T07:05:05.153Z,1017.37
2019-06-01T07:06:05.171Z,1017.35
2019-06-01T07:07:05.251Z,1017.33
2019-06-01T07:08:05.219Z,1017.33
2019-06-01T07:09:05.241Z,1017.34
2019-06-01T07:10:05.254Z,1017.28
2019-06-01T07:11:05.281Z,1017.28
2019-06-01T07:12:05.321Z,1017.33
2019-06-01T07:13:05.345Z,1017.28
2019-06-01T07:14:05.355Z,1017.31
2019-06-01T07:15:05.391Z,1017.33
2019-06-01T07:16:05.407Z,1017.27
2019-06-01T07:17:05.442Z,1017.25
2019-06-01T07:18:05.460Z,1017.25
2019-06-01T07:19:05.488Z,1017.22
2019-06-01T07:20:05.530Z,1017.24
2019-06-01T07:21:05.564Z,1017.22
2019-06-01T07:22:05.558Z,1017.21
2019-06-01T07:23:05.595Z,1017.21
2019-06-01T07:24:05.615Z,1017.27
2019-06-01T07:25:05.639Z,1017.31
2019-06-01T07:26:05.659Z,1017.33
2019-06-01T07:27:05.700Z,1017.30
2019-06-01T07:28:05.709Z,1017.31
2019-06-01T07:29:05.754Z,1017.30
2019-06-01T07:30:05.769Z,1017.32
2019-06-01T07:31:05.797Z,1017.29
2019-06-01T07:32:05.815Z,1017.26
2019-06-01T07:33:05.839Z,1017.30
2019-06-01T07:34:05.862Z,1017.34
2019-06-01T07:35:05.888Z,1017.31
2019-06-01T07:36:05.916Z,1017.36
2019-06-01T07:37:05.941Z,1017.31
2019-06-01T07:38:05.966Z,1017.31
2019-06-01T07:39:05.993Z,1017.37
2019-06-01T07:40:06.018Z,1017.40
2019-06-01T07:41:06.041Z,1017.38
2019-06-01T07:42:06.086Z,1017.38
2019-06-01T07:43:06.095Z,1017.39
2019-06-01T07:44:06.123Z,1017.43
2019-06-01T07:45:06.146Z,1017.43
2019-06-01T07:46:06.168Z,1017.40
2019-06-01T07:47:06.194Z,1017.39
2019-06-01T07:48:06.220Z,1017.41
2019-06-01T07:49:06.249Z,1017.40
2019-06-01T07:50:06.268Z,1017.42
2019-06-01T07:51:06.295Z,1017.39
2019-06-01T07:52:12.745Z,1017.40
2019-06-01T07:53:06.343Z,1017.42
2019-06-01T07:54:06.369Z,1017.44
2019-06-01T07:55:06.398Z,1017.42
2019-06-01T07:56:06.421Z,1017.41
2019-06-01T07:57:06.444Z,1017.42
2019-06-01T07:58:06.477Z,1017.38
2019-06-01T07:59:06.494Z,1017.37
2019-06-01T08:00:06.524Z,1017.37
2019-06-01T08:01:06.553Z,1017.37
2019-06-01T08:02:06.580Z,1017.36
2019-06-01T08:03:06.594Z,1017.42
2019-06-01T08:04:06.619Z,1017.41
2019-06-01T08:05:06.647Z,1017.39
2019-06-01T08:06:06.668Z,1017.32
2019-06-01T08:07:06.693Z,1017.36
2019-06-01T08:08:06.718Z,1017.31
2019-06-01T08:09:06.783Z,1017.37
2019-06-01T08:10:06.783Z,1017.30
2019-06-01T08:11:06.795Z,1017.38
2019-06-01T08:12:06.815Z,1017.38
2019-06-01T08:13:06.849Z,1017.40
2019-06-01T08:14:06.870Z,1017.37
2019-06-01T08:15:06.898Z,1017.39
2019-06-01T08:16:06.916Z,1017.40
2019-06-01T08:17:06.949Z,1017.37
2019-06-01T08:18:06.970Z,1017.38
2019-06-01T08:19:06.986Z,1017.38
2019-06-01T08:20:07.011Z,1017.41
2019-06-01T08:21:07.043Z,1017.38
2019-06-01T08:22:07.126Z,1017.41
2019-06-01T08:23:07.103Z,1017.40
2019-06-01T08:24:07.223Z,1017.39
2019-06-01T08:25:07.134Z,1017.33
2019-06-01T08:26:07.161Z,1017.33
2019-06-01T08:27:07.184Z,1017.34
2019-06-01T08:28:07.212Z,1017.38
2019-06-01T08:29:07.233Z,1017.33
2019-06-01T08:30:07.261Z,1017.33
2019-06-01T08:31:07.283Z,1017.34
2019-06-01T08:32:07.311Z,1017.34
2019-06-01T08:33:07.336Z,1017.28
2019-06-01T08:34:07.382Z,1017.30
2019-06-01T08:35:09.281Z,1017.28
2019-06-01T08:36:07.408Z,1017.32
2019-06-01T08:37:07.434Z,1017.28
2019-06-01T08:38:07.458Z,1017.31
2019-06-01T08:39:07.490Z,1017.30
2019-06-01T08:40:07.508Z,1017.31
2019-06-01T08:41:07.532Z,1017.35
2019-06-01T08:42:07.639Z,1017.30
2019-06-01T08:43:07.581Z,1017.26
2019-06-01T08:44:07.607Z,1017.27
2019-06-01T08:45:07.654Z,1017.25
2019-06-01T08:46:07.664Z,1017.26
2019-06-01T08:47:07.681Z,1017.24
2019-06-01T08:48:07.712Z,1017.29
2019-06-01T08:49:07.742Z,1017.32
2019-06-01T08:50:07.756Z,1017.32
2019-06-01T08:51:07.780Z,1017.31
2019-06-01T08:52:07.811Z,1017.29
2019-06-01T08:53:07.837Z,1017.23
2019-06-01T08:54:07.868Z,1017.22
2019-06-01T08:55:07.879Z,1017.16
2019-06-01T08:56:07.913Z,1017.20
2019-06-01T08:57:08.004Z,1017.24
2019-06-01T08:58:07.955Z,1017.22
2019-06-01T08:59:07.978Z,1017.19
2019-06-01T09:00:08.005Z,1017.21
2019-06-01T09:01:08.026Z,1017.14
2019-06-01T09:02:08.057Z,1017.21
2019-06-01T09:03:08.075Z,1017.21
2019-06-01T09:04:08.108Z,1017.22
2019-06-01T09:05:21.282Z,1017.22
2019-06-01T09:06:08.159Z,1017.21
2019-06-01T09:07:08.185Z,1017.18
2019-06-01T09:08:08.201Z,1017.20
2019-06-01T09:09:11.537Z,1017.21
2019-06-01T09:10:08.251Z,1017.17
2019-06-01T09:11:08.285Z,1017.12
2019-06-01T09:12:08.301Z,1017.16
2019-06-01T09:13:08.323Z,1017.15
2019-06-01T09:14:08.351Z,1017.16
2019-06-01T09:15:08.380Z,1017.10
2019-06-01T09:16:08.401Z,1017.07
2019-06-01T09:17:08.426Z,1017.03
2019-06-01T09:18:08.449Z,1017.04
2019-06-01T09:19:11.197Z,1017.04
2019-06-01T09:20:08.498Z,1017.01
2019-06-01T09:21:08.530Z,1017.06
2019-06-01T09:22:08.552Z,1017.01
2019-06-01T09:23:08.574Z,1017.06
2019-06-01T09:24:08.599Z,1017.03
2019-06-01T09:25:08.624Z,1017.00
2019-06-01T09:26:08.655Z,1017.06
2019-06-01T09:27:08.677Z,1017.09
2019-06-01T09:28:08.703Z,1017.08
2019-06-01T09:29:08.727Z,1017.09
2019-06-01T09:30:08.753Z,1017.04
2019-06-01T09:31:08.777Z,1017.02
2019-06-01T09:32:11.107Z,1017.00
2019-06-01T09:33:08.828Z,1017.06
2019-06-01T09:34:08.854Z,1017.03
2019-06-01T09:35:08.879Z,1017.02
2019-06-01T09:36:08.967Z,1017.01
2019-06-01T09:37:08.928Z,1017.04
2019-06-01T09:38:08.957Z,1017.04
2019-06-01T09:39:08.985Z,1017.07
2019-06-01T09:40:09.007Z,1017.03
2019-06-01T09:41:09.037Z,1017.05
2019-06-01T09:42:09.063Z,1017.03
2019-06-01T09:43:09.091Z,1017.05
2019-06-01T09:44:09.108Z,1016.99
2019-06-01T09:45:09.133Z,1017.02
2019-06-01T09:46:09.182Z,1016.97
2019-06-01T09:47:09.189Z,1017.03
2019-06-01T09:48:09.219Z,1016.98
2019-06-01T09:49:09.234Z,1016.96
2019-06-01T09:50:09.260Z,1017.00
2019-06-01T09:51:09.286Z,1016.88
2019-06-01T09:52:12.286Z,1016.94
2019-06-01T09:53:09.337Z,1016.92
2019-06-01T09:54:09.366Z,1016.94
2019-06-01T09:55:09.424Z,1016.94
2019-06-01T09:56:09.417Z,1016.91
2019-06-01T09:57:09.451Z,1016.88
2019-06-01T09:58:09.468Z,1016.97
2019-06-01T09:59:09.491Z,1016.96
2019-06-01T10:00:09.526Z,1016.91
2019-06-01T10:01:09.542Z,1016.92
2019-06-01T10:02:09.569Z,1016.93
2019-06-01T10:03:09.597Z,1016.93
2019-06-01T10:04:09.630Z,1016.90
2019-06-01T10:05:09.645Z,1016.89
2019-06-01T10:06:13.745Z,1016.95
2019-06-01T10:07:09.699Z,1016.92
2019-06-01T10:08:09.728Z,1016.85
2019-06-01T10:09:09.771Z,1016.87
2019-06-01T10:10:09.832Z,1016.90
2019-06-01T10:11:09.808Z,1016.91
2019-06-01T10:12:09.826Z,1016.89
2019-06-01T10:13:09.854Z,1016.92
2019-06-01T10:14:09.880Z,1016.90
2019-06-01T10:15:09.907Z,1016.90
2019-06-01T10:16:09.933Z,1016.86
2019-06-01T10:17:09.954Z,1016.90
2019-06-01T10:18:09.981Z,1016.97
2019-06-01T10:19:10.019Z,1016.91
2019-06-01T10:20:10.045Z,1016.88
2019-06-01T10:21:10.057Z,1016.86
2019-06-01T10:22:10.091Z,1016.86
2019-06-01T10:23:10.119Z,1016.82
2019-06-01T10:24:10.140Z,1016.86
2019-06-01T10:25:10.161Z,1016.88
2019-06-01T10:26:10.186Z,1016.85
2019-06-01T10:27:10.221Z,1016.85
2019-06-01T10:28:10.242Z,1016.78
2019-06-01T10:29:10.266Z,1016.85
2019-06-01T10:30:10.293Z,1016.81
2019-06-01T10:31:10.321Z,1016.79
2019-06-01T10:32:10.693Z,1016.79
2019-06-01T10:33:10.374Z,1016.77
2019-06-01T10:34:10.398Z,1016.77
2019-06-01T10:35:10.423Z,1016.82
2019-06-01T10:36:20.750Z,1016.79
2019-06-01T10:37:10.486Z,1016.76
2019-06-01T10:38:10.498Z,1016.80
2019-06-01T10:39:10.526Z,1016.81
2019-06-01T10:40:10.549Z,1016.84
2019-06-01T10:41:10.574Z,1016.86
2019-06-01T10:42:10.602Z,1016.80
2019-06-01T10:43:10.635Z,1016.74
2019-06-01T10:44:10.652Z,1016.70
2019-06-01T10:45:10.677Z,1016.74
2019-06-01T10:46:10.712Z,1016.70
2019-06-01T10:47:10.734Z,1016.71
2019-06-01T10:48:10.765Z,1016.70
2019-06-01T10:49:10.829Z,1016.70
2019-06-01T10:50:10.814Z,1016.69
2019-06-01T10:51:10.834Z,1016.59
2019-06-01T10:52:10.864Z,1016.64
2019-06-01T10:53:10.892Z,1016.66
2019-06-01T10:54:10.915Z,1016.68
2019-06-01T10:55:10.999Z,1016.69
2019-06-01T10:56:10.975Z,1016.60
2019-06-01T10:57:10.990Z,1016.63
2019-06-01T10:58:11.040Z,1016.61
2019-06-01T10:59:11.051Z,1016.63
2019-06-01T11:00:11.072Z,1016.62
2019-06-01T11:01:11.098Z,1016.64
2019-06-01T11:02:11.121Z,1016.61
2019-06-01T11:03:11.155Z,1016.58
2019-06-01T11:04:11.175Z,1016.57
2019-06-01T11:05:11.206Z,1016.63
2019-06-01T11:06:11.234Z,1016.52
2019-06-01T11:07:11.252Z,1016.52
2019-06-01T11:08:11.282Z,1016.57
2019-06-01T11:09:11.307Z,1016.57
2019-06-01T11:10:11.409Z,1016.57
2019-06-01T11:11:11.363Z,1016.56
2019-06-01T11:12:11.390Z,1016.49
2019-06-01T11:13:11.485Z,1016.50
2019-06-01T11:14:11.440Z,1016.56
2019-06-01T11:15:11.463Z,1016.50
2019-06-01T11:16:11.488Z,1016.48
2019-06-01T11:17:11.523Z,1016.46
2019-06-01T11:18:11.549Z,1016.50
2019-06-01T11:19:11.592Z,1016.44
2019-06-01T11:20:11.598Z,1016.47
2019-06-01T11:21:11.622Z,1016.53
2019-06-01T11:22:11.658Z,1016.51
2019-06-01T11:23:11.681Z,1016.50
2019-06-01T11:24:12.007Z,1016.45
2019-06-01T11:25:11.731Z,1016.42
2019-06-01T11:26:11.755Z,1016.40
2019-06-01T11:27:11.781Z,1016.40
2019-06-01T11:28:11.811Z,1016.36
2019-06-01T11:29:11.832Z,1016.44
2019-06-01T11:30:11.860Z,1016.42
2019-06-01T11:31:11.892Z,1016.41
2019-06-01T11:32:11.922Z,1016.43
2019-06-01T11:33:11.943Z,1016.40
2019-06-01T11:34:11.966Z,1016.37
2019-06-01T11:35:11.993Z,1016.44
2019-06-01T11:36:12.023Z,1016.49
2019-06-01T11:37:15.261Z,1016.43
2019-06-01T11:38:12.071Z,1016.43
2019-06-01T11:39:12.100Z,1016.37
2019-06-01T11:40:12.126Z,1016.33
2019-06-01T11:41:12.147Z,1016.33
2019-06-01T11:42:12.180Z,1016.31
2019-06-01T11:43:12.210Z,1016.33
2019-06-01T11:44:12.233Z,1016.30
2019-06-01T11:45:12.262Z,1016.31
2019-06-01T11:46:12.288Z,1016.32
2019-06-01T11:47:12.306Z,1016.31
2019-06-01T11:48:12.333Z,1016.27
2019-06-01T11:49:12.369Z,1016.29
2019-06-01T11:50:12.389Z,1016.27
2019-06-01T11:51:12.416Z,1016.25
2019-06-01T11:52:12.443Z,1016.21
2019-06-01T11:53:12.466Z,1016.22
2019-06-01T11:54:12.494Z,1016.18
2019-06-01T11:55:12.519Z,1016.15
2019-06-01T11:56:12.550Z,1016.22
2019-06-01T11:57:12.639Z,1016.13
2019-06-01T11:58:12.613Z,1016.09
2019-06-01T11:59:12.630Z,1016.01
2019-06-01T12:00:12.663Z,1016.10
2019-06-01T12:01:12.680Z,1016.11
2019-06-01T12:02:12.707Z,1016.10
2019-06-01T12:03:12.743Z,1016.09
2019-06-01T12:04:13.163Z,1016.07
2019-06-01T12:05:12.787Z,1016.09